Ceylon — 9VMU6 — position and weather

sailwx.info

Track history (hours):
 
Tides and Currents Weather Stations Pressure Air Temp Water Temp Dewpoint Dewpoint Depression Visibility Wind Speed Wind Dir Waves Ship Positions

Ceylon

Last reported at 2016-May-30 15:32 UTC. Time now 2016-Jun-27 18:42 UTC.
Position S 23°05' W 043°04'.
Warning: this ship's position is 28 days out of date.

Length 180 m; draft 7.1 m.

Type: Tanker. MMSI: 563847000.

Date/timePositionNaut miles runAvg speedWind from/ knotsBaromVisibWave heightAir tempDewpointWater temp
2016-May-30 15:32S 23°05' W 043°04'1010.7
2016-May-30 14:33S 23°09' W 042°53'1111.2
2016-May-30 13:33S 23°14' W 042°42'1110.9
2016-May-30 12:33S 23°18' W 042°32'8 7.9
2016-May-30 11:33S 23°22' W 042°24'1211.6
2016-May-30 10:33S 23°27' W 042°13'1211.9
2016-May-30 09:33S 23°32' W 042°01'1212.1
2016-May-30 08:33S 23°37' W 041°49'1211.8
2016-May-30 07:33S 23°40' W 041°36'1212.2
2016-May-30 06:33S 23°40' W 041°23'1412.2
2016-May-30 05:24S 23°40' W 041°08'1011.7
2016-May-30 04:31S 23°40' W 040°56'1111.4
2016-May-30 03:33S 23°40' W 040°44'1312.0
2016-May-30 02:30S 23°31' W 040°34'  
2016-May-21 08:33S 00°12' W 047°17'1111.2
2016-May-21 07:34S 00°14' W 047°28'1212.2
2016-May-21 06:34S 00°21' W 047°38'1111.1
2016-May-21 05:33S 00°27' W 047°47'1514.5
2016-May-21 04:33S 00°31' W 048°01'1615.5
2016-May-21 03:33S 00°41' W 048°13'1413.9
2016-May-21 02:33S 00°53' W 048°20'1211.8
2016-May-21 01:33S 01°03' W 048°26'1010.1
2016-May-21 00:33S 01°13' W 048°29'9 8.7
2016-May-20 23:33S 01°21' W 048°29'3 3.0
2016-May-20 22:34S 01°24' W 048°30'0 0.0
2016-May-20 21:32S 01°24' W 048°30'0 0.0
2016-May-20 20:32S 01°24' W 048°30'0 0.0
2016-May-20 19:32S 01°24' W 048°30'0 0.2
2016-May-20 18:32S 01°24' W 048°30'0 0.2
2016-May-20 17:33S 01°24' W 048°30'0 0.0
2016-May-20 16:33S 01°24' W 048°30'0 0.0
2016-May-20 15:33S 01°24' W 048°30'  
Track history (hours):
 
Tides and Currents Weather Stations Pressure Air Temp Water Temp Dewpoint Dewpoint Depression Visibility Wind Speed Wind Dir Waves Ship Positions

Ceylon

Last reported at 2016-May-30 15:32 UTC. Time now 2016-Jun-27 18:42 UTC.
Position S 23°05' W 043°04'.
Warning: this ship's position is 28 days out of date.

Length 180 m; draft 7.1 m.

Type: Tanker. MMSI: 563847000.

Date/timePositionNaut miles runAvg speedWind from/ knotsBaromVisibWave heightAir tempDewpointWater temp
2016-May-30 15:32S 23°05' W 043°04'1010.7
2016-May-30 14:33S 23°09' W 042°53'1111.2
2016-May-30 13:33S 23°14' W 042°42'1110.9
2016-May-30 12:33S 23°18' W 042°32'8 7.9
2016-May-30 11:33S 23°22' W 042°24'1211.6
2016-May-30 10:33S 23°27' W 042°13'1211.9
2016-May-30 09:33S 23°32' W 042°01'1212.1
2016-May-30 08:33S 23°37' W 041°49'1211.8
2016-May-30 07:33S 23°40' W 041°36'1212.2
2016-May-30 06:33S 23°40' W 041°23'1412.2
2016-May-30 05:24S 23°40' W 041°08'1011.7
2016-May-30 04:31S 23°40' W 040°56'1111.4
2016-May-30 03:33S 23°40' W 040°44'1312.0
2016-May-30 02:30S 23°31' W 040°34'  
2016-May-21 08:33S 00°12' W 047°17'1111.2
2016-May-21 07:34S 00°14' W 047°28'1212.2
2016-May-21 06:34S 00°21' W 047°38'1111.1
2016-May-21 05:33S 00°27' W 047°47'1514.5
2016-May-21 04:33S 00°31' W 048°01'1615.5
2016-May-21 03:33S 00°41' W 048°13'1413.9
2016-May-21 02:33S 00°53' W 048°20'1211.8
2016-May-21 01:33S 01°03' W 048°26'1010.1
2016-May-21 00:33S 01°13' W 048°29'9 8.7
2016-May-20 23:33S 01°21' W 048°29'3 3.0
2016-May-20 22:34S 01°24' W 048°30'0 0.0
2016-May-20 21:32S 01°24' W 048°30'0 0.0
2016-May-20 20:32S 01°24' W 048°30'0 0.0
2016-May-20 19:32S 01°24' W 048°30'0 0.2
2016-May-20 18:32S 01°24' W 048°30'0 0.2
2016-May-20 17:33S 01°24' W 048°30'0 0.0
2016-May-20 16:33S 01°24' W 048°30'0 0.0
2016-May-20 15:33S 01°24' W 048°30'  

Dump ship's entire track history